sensor_id;sensor_type;location;lat;lon;timestamp;P1;durP1;ratioP1;P2;durP2;ratioP2
74383;SDS011;62824;52.994;-3.936;2024-01-25T00:02:05;19.30;;;4.78;;
74383;SDS011;62824;52.994;-3.936;2024-01-25T00:04:32;18.85;;;5.05;;
74383;SDS011;62824;52.994;-3.936;2024-01-25T00:06:59;24.83;;;3.90;;
74383;SDS011;62824;52.994;-3.936;2024-01-25T00:09:27;19.88;;;2.92;;
74383;SDS011;62824;52.994;-3.936;2024-01-25T00:11:53;14.63;;;3.08;;
74383;SDS011;62824;52.994;-3.936;2024-01-25T00:14:22;17.67;;;3.20;;
74383;SDS011;62824;52.994;-3.936;2024-01-25T00:16:54;18.20;;;3.15;;
74383;SDS011;62824;52.994;-3.936;2024-01-25T00:19:25;15.15;;;3.13;;
74383;SDS011;62824;52.994;-3.936;2024-01-25T00:21:51;16.45;;;3.72;;
74383;SDS011;62824;52.994;-3.936;2024-01-25T00:24:17;19.13;;;3.50;;
74383;SDS011;62824;52.994;-3.936;2024-01-25T00:26:54;13.57;;;3.25;;
74383;SDS011;62824;52.994;-3.936;2024-01-25T00:29:23;19.20;;;4.60;;
74383;SDS011;62824;52.994;-3.936;2024-01-25T00:31:52;19.17;;;3.35;;
74383;SDS011;62824;52.994;-3.936;2024-01-25T00:34:26;15.63;;;2.75;;
74383;SDS011;62824;52.994;-3.936;2024-01-25T00:36:55;16.23;;;3.03;;
74383;SDS011;62824;52.994;-3.936;2024-01-25T00:39:39;14.93;;;3.28;;
74383;SDS011;62824;52.994;-3.936;2024-01-25T00:42:08;22.13;;;3.00;;
74383;SDS011;62824;52.994;-3.936;2024-01-25T00:44:39;16.05;;;3.83;;
74383;SDS011;62824;52.994;-3.936;2024-01-25T00:47:06;23.20;;;3.60;;
74383;SDS011;62824;52.994;-3.936;2024-01-25T00:49:32;14.35;;;3.05;;
74383;SDS011;62824;52.994;-3.936;2024-01-25T00:52:02;17.50;;;3.63;;
74383;SDS011;62824;52.994;-3.936;2024-01-25T00:54:31;17.70;;;3.00;;
74383;SDS011;62824;52.994;-3.936;2024-01-25T00:56:58;15.25;;;3.08;;
74383;SDS011;62824;52.994;-3.936;2024-01-25T00:59:25;22.00;;;3.97;;
74383;SDS011;62824;52.994;-3.936;2024-01-25T01:01:53;20.55;;;2.97;;
74383;SDS011;62824;52.994;-3.936;2024-01-25T01:04:33;19.55;;;3.63;;
74383;SDS011;62824;52.994;-3.936;2024-01-25T01:07:00;20.13;;;4.60;;
74383;SDS011;62824;52.994;-3.936;2024-01-25T01:09:29;18.10;;;3.40;;
74383;SDS011;62824;52.994;-3.936;2024-01-25T01:11:58;22.45;;;4.57;;
74383;SDS011;62824;52.994;-3.936;2024-01-25T01:14:27;19.33;;;4.40;;
74383;SDS011;62824;52.994;-3.936;2024-01-25T01:16:53;20.08;;;3.78;;
74383;SDS011;62824;52.994;-3.936;2024-01-25T01:19:28;20.63;;;4.50;;
74383;SDS011;62824;52.994;-3.936;2024-01-25T01:22:00;17.08;;;4.15;;
74383;SDS011;62824;52.994;-3.936;2024-01-25T01:24:29;15.73;;;4.38;;
74383;SDS011;62824;52.994;-3.936;2024-01-25T01:27:04;17.08;;;3.15;;
74383;SDS011;62824;52.994;-3.936;2024-01-25T01:29:33;23.38;;;3.95;;
74383;SDS011;62824;52.994;-3.936;2024-01-25T01:31:59;14.43;;;2.80;;
74383;SDS011;62824;52.994;-3.936;2024-01-25T01:34:25;15.88;;;4.30;;
74383;SDS011;62824;52.994;-3.936;2024-01-25T01:36:52;19.63;;;3.80;;
74383;SDS011;62824;52.994;-3.936;2024-01-25T01:39:20;15.43;;;3.22;;
74383;SDS011;62824;52.994;-3.936;2024-01-25T01:41:52;17.50;;;4.47;;
74383;SDS011;62824;52.994;-3.936;2024-01-25T01:44:18;13.13;;;4.00;;
74383;SDS011;62824;52.994;-3.936;2024-01-25T01:46:47;20.23;;;5.03;;
74383;SDS011;62824;52.994;-3.936;2024-01-25T01:49:20;18.58;;;4.15;;
74383;SDS011;62824;52.994;-3.936;2024-01-25T01:51:46;19.60;;;4.07;;
74383;SDS011;62824;52.994;-3.936;2024-01-25T01:54:12;17.33;;;3.83;;
74383;SDS011;62824;52.994;-3.936;2024-01-25T01:56:39;13.35;;;3.38;;
74383;SDS011;62824;52.994;-3.936;2024-01-25T01:59:09;22.42;;;3.92;;
74383;SDS011;62824;52.994;-3.936;2024-01-25T02:01:45;12.85;;;3.80;;
74383;SDS011;62824;52.994;-3.936;2024-01-25T02:04:17;10.93;;;3.60;;
74383;SDS011;62824;52.994;-3.936;2024-01-25T02:06:50;13.02;;;4.05;;
74383;SDS011;62824;52.994;-3.936;2024-01-25T02:09:32;14.70;;;3.42;;
74383;SDS011;62824;52.994;-3.936;2024-01-25T02:12:01;19.45;;;4.07;;
74383;SDS011;62824;52.994;-3.936;2024-01-25T02:17:10;11.88;;;3.88;;
74383;SDS011;62824;52.994;-3.936;2024-01-25T02:19:37;13.43;;;3.63;;
74383;SDS011;62824;52.994;-3.936;2024-01-25T02:22:04;21.92;;;4.50;;
74383;SDS011;62824;52.994;-3.936;2024-01-25T02:24:33;14.43;;;4.30;;
74383;SDS011;62824;52.994;-3.936;2024-01-25T02:27:00;16.40;;;4.30;;
74383;SDS011;62824;52.994;-3.936;2024-01-25T02:29:28;14.80;;;2.95;;
74383;SDS011;62824;52.994;-3.936;2024-01-25T02:31:54;12.93;;;2.97;;
74383;SDS011;62824;52.994;-3.936;2024-01-25T02:34:21;17.15;;;4.15;;
74383;SDS011;62824;52.994;-3.936;2024-01-25T02:36:47;15.43;;;3.30;;
74383;SDS011;62824;52.994;-3.936;2024-01-25T02:39:16;10.85;;;3.70;;
74383;SDS011;62824;52.994;-3.936;2024-01-25T02:41:42;14.82;;;3.08;;
74383;SDS011;62824;52.994;-3.936;2024-01-25T02:44:09;13.18;;;3.72;;
74383;SDS011;62824;52.994;-3.936;2024-01-25T02:46:36;15.18;;;4.63;;
74383;SDS011;62824;52.994;-3.936;2024-01-25T02:49:03;14.13;;;3.13;;
74383;SDS011;62824;52.994;-3.936;2024-01-25T02:51:29;13.25;;;2.75;;
74383;SDS011;62824;52.994;-3.936;2024-01-25T02:53:55;19.67;;;3.65;;
74383;SDS011;62824;52.994;-3.936;2024-01-25T02:56:26;10.85;;;3.25;;
74383;SDS011;62824;52.994;-3.936;2024-01-25T02:59:06;14.13;;;3.30;;
74383;SDS011;62824;52.994;-3.936;2024-01-25T03:01:41;14.10;;;2.72;;
74383;SDS011;62824;52.994;-3.936;2024-01-25T03:04:14;11.35;;;2.88;;
74383;SDS011;62824;52.994;-3.936;2024-01-25T03:06:43;16.48;;;3.33;;
74383;SDS011;62824;52.994;-3.936;2024-01-25T03:09:09;14.23;;;2.80;;
74383;SDS011;62824;52.994;-3.936;2024-01-25T03:11:35;11.88;;;2.97;;
74383;SDS011;62824;52.994;-3.936;2024-01-25T03:14:02;15.07;;;2.85;;
74383;SDS011;62824;52.994;-3.936;2024-01-25T03:16:31;11.43;;;2.60;;
74383;SDS011;62824;52.994;-3.936;2024-01-25T03:18:57;14.50;;;3.17;;
74383;SDS011;62824;52.994;-3.936;2024-01-25T03:21:23;17.48;;;4.03;;
74383;SDS011;62824;52.994;-3.936;2024-01-25T03:23:56;16.50;;;3.78;;
74383;SDS011;62824;52.994;-3.936;2024-01-25T03:26:23;8.85;;;2.65;;
74383;SDS011;62824;52.994;-3.936;2024-01-25T03:28:56;9.82;;;2.67;;
74383;SDS011;62824;52.994;-3.936;2024-01-25T03:31:22;9.98;;;1.95;;
74383;SDS011;62824;52.994;-3.936;2024-01-25T03:33:48;18.20;;;2.60;;
74383;SDS011;62824;52.994;-3.936;2024-01-25T03:36:16;10.52;;;3.25;;
74383;SDS011;62824;52.994;-3.936;2024-01-25T03:38:45;18.10;;;2.45;;
74383;SDS011;62824;52.994;-3.936;2024-01-25T03:41:11;13.35;;;2.60;;
74383;SDS011;62824;52.994;-3.936;2024-01-25T03:43:44;12.48;;;2.92;;
74383;SDS011;62824;52.994;-3.936;2024-01-25T03:46:13;11.93;;;2.75;;
74383;SDS011;62824;52.994;-3.936;2024-01-25T03:48:39;10.70;;;2.38;;
74383;SDS011;62824;52.994;-3.936;2024-01-25T03:51:06;11.35;;;2.30;;
74383;SDS011;62824;52.994;-3.936;2024-01-25T03:53:32;14.50;;;3.17;;
74383;SDS011;62824;52.994;-3.936;2024-01-25T03:55:58;14.15;;;3.13;;
74383;SDS011;62824;52.994;-3.936;2024-01-25T03:58:24;13.75;;;2.30;;
74383;SDS011;62824;52.994;-3.936;2024-01-25T04:00:50;10.57;;;2.28;;
74383;SDS011;62824;52.994;-3.936;2024-01-25T04:03:17;11.00;;;2.25;;
74383;SDS011;62824;52.994;-3.936;2024-01-25T04:05:44;10.93;;;2.88;;
74383;SDS011;62824;52.994;-3.936;2024-01-25T04:08:12;11.70;;;3.03;;
74383;SDS011;62824;52.994;-3.936;2024-01-25T04:10:38;15.35;;;2.53;;
74383;SDS011;62824;52.994;-3.936;2024-01-25T04:13:08;11.27;;;2.00;;
74383;SDS011;62824;52.994;-3.936;2024-01-25T04:15:34;11.95;;;3.50;;
74383;SDS011;62824;52.994;-3.936;2024-01-25T04:18:03;9.57;;;2.05;;
74383;SDS011;62824;52.994;-3.936;2024-01-25T04:20:32;11.38;;;2.58;;
74383;SDS011;62824;52.994;-3.936;2024-01-25T04:23:00;10.70;;;2.28;;
74383;SDS011;62824;52.994;-3.936;2024-01-25T04:25:27;10.13;;;2.10;;
74383;SDS011;62824;52.994;-3.936;2024-01-25T04:27:53;10.13;;;2.10;;
74383;SDS011;62824;52.994;-3.936;2024-01-25T04:30:19;9.68;;;2.53;;
74383;SDS011;62824;52.994;-3.936;2024-01-25T04:32:45;11.93;;;2.53;;
74383;SDS011;62824;52.994;-3.936;2024-01-25T04:35:18;8.45;;;2.05;;
74383;SDS011;62824;52.994;-3.936;2024-01-25T04:37:47;10.10;;;2.00;;
74383;SDS011;62824;52.994;-3.936;2024-01-25T04:40:13;10.45;;;2.05;;
74383;SDS011;62824;52.994;-3.936;2024-01-25T04:42:45;4.85;;;1.58;;
74383;SDS011;62824;52.994;-3.936;2024-01-25T04:45:11;8.52;;;1.90;;
74383;SDS011;62824;52.994;-3.936;2024-01-25T04:47:40;8.25;;;2.03;;
74383;SDS011;62824;52.994;-3.936;2024-01-25T04:50:06;7.55;;;2.00;;
74383;SDS011;62824;52.994;-3.936;2024-01-25T04:52:33;10.75;;;3.25;;
74383;SDS011;62824;52.994;-3.936;2024-01-25T04:54:59;9.23;;;3.03;;
74383;SDS011;62824;52.994;-3.936;2024-01-25T04:57:25;11.68;;;3.30;;
74383;SDS011;62824;52.994;-3.936;2024-01-25T04:59:52;13.45;;;2.70;;
74383;SDS011;62824;52.994;-3.936;2024-01-25T05:02:20;9.02;;;2.22;;
74383;SDS011;62824;52.994;-3.936;2024-01-25T05:04:47;8.05;;;1.88;;
74383;SDS011;62824;52.994;-3.936;2024-01-25T05:07:19;6.05;;;1.60;;
74383;SDS011;62824;52.994;-3.936;2024-01-25T05:09:45;7.45;;;1.98;;
74383;SDS011;62824;52.994;-3.936;2024-01-25T05:12:11;7.72;;;1.92;;
74383;SDS011;62824;52.994;-3.936;2024-01-25T05:14:38;6.13;;;2.42;;
74383;SDS011;62824;52.994;-3.936;2024-01-25T05:17:04;7.93;;;1.92;;
74383;SDS011;62824;52.994;-3.936;2024-01-25T05:19:30;4.22;;;1.58;;
74383;SDS011;62824;52.994;-3.936;2024-01-25T05:21:58;4.63;;;1.60;;
74383;SDS011;62824;52.994;-3.936;2024-01-25T05:24:26;6.45;;;1.90;;
74383;SDS011;62824;52.994;-3.936;2024-01-25T05:26:53;4.15;;;2.00;;
74383;SDS011;62824;52.994;-3.936;2024-01-25T05:29:21;5.05;;;1.70;;
74383;SDS011;62824;52.994;-3.936;2024-01-25T05:31:47;4.75;;;1.88;;
74383;SDS011;62824;52.994;-3.936;2024-01-25T05:34:15;4.90;;;1.27;;
74383;SDS011;62824;52.994;-3.936;2024-01-25T05:36:44;4.90;;;1.25;;
74383;SDS011;62824;52.994;-3.936;2024-01-25T05:39:12;3.33;;;1.10;;
74383;SDS011;62824;52.994;-3.936;2024-01-25T05:41:42;13.32;;;4.13;;
74383;SDS011;62824;52.994;-3.936;2024-01-25T05:44:12;5.97;;;1.73;;
74383;SDS011;62824;52.994;-3.936;2024-01-25T05:46:38;5.65;;;1.80;;
74383;SDS011;62824;52.994;-3.936;2024-01-25T05:49:04;5.53;;;1.30;;
74383;SDS011;62824;52.994;-3.936;2024-01-25T05:51:30;3.45;;;1.10;;
74383;SDS011;62824;52.994;-3.936;2024-01-25T05:53:55;4.47;;;1.40;;
74383;SDS011;62824;52.994;-3.936;2024-01-25T05:56:21;5.60;;;1.40;;
74383;SDS011;62824;52.994;-3.936;2024-01-25T05:58:47;3.78;;;1.60;;
74383;SDS011;62824;52.994;-3.936;2024-01-25T06:01:43;2.00;;;0.80;;
74383;SDS011;62824;52.994;-3.936;2024-01-25T06:04:09;7.63;;;1.40;;
74383;SDS011;62824;52.994;-3.936;2024-01-25T06:06:41;3.70;;;1.25;;
74383;SDS011;62824;52.994;-3.936;2024-01-25T06:09:07;5.15;;;1.33;;
74383;SDS011;62824;52.994;-3.936;2024-01-25T06:11:36;4.93;;;1.00;;
74383;SDS011;62824;52.994;-3.936;2024-01-25T06:14:03;1.65;;;0.88;;
74383;SDS011;62824;52.994;-3.936;2024-01-25T06:16:32;1.95;;;0.68;;
74383;SDS011;62824;52.994;-3.936;2024-01-25T06:18:58;0.60;;;0.55;;
74383;SDS011;62824;52.994;-3.936;2024-01-25T06:21:25;2.22;;;0.60;;
74383;SDS011;62824;52.994;-3.936;2024-01-25T06:23:51;0.93;;;0.47;;
74383;SDS011;62824;52.994;-3.936;2024-01-25T06:26:17;1.95;;;0.65;;
74383;SDS011;62824;52.994;-3.936;2024-01-25T06:28:43;2.33;;;0.77;;
74383;SDS011;62824;52.994;-3.936;2024-01-25T06:31:09;2.60;;;0.57;;
74383;SDS011;62824;52.994;-3.936;2024-01-25T06:33:35;2.28;;;0.63;;
74383;SDS011;62824;52.994;-3.936;2024-01-25T06:36:01;1.45;;;0.70;;
74383;SDS011;62824;52.994;-3.936;2024-01-25T06:38:27;3.75;;;0.63;;
74383;SDS011;62824;52.994;-3.936;2024-01-25T06:40:53;3.60;;;1.00;;
74383;SDS011;62824;52.994;-3.936;2024-01-25T06:43:19;2.20;;;0.73;;
74383;SDS011;62824;52.994;-3.936;2024-01-25T06:45:45;1.45;;;0.70;;
74383;SDS011;62824;52.994;-3.936;2024-01-25T06:48:11;4.63;;;0.80;;
74383;SDS011;62824;52.994;-3.936;2024-01-25T06:50:37;3.05;;;0.90;;
74383;SDS011;62824;52.994;-3.936;2024-01-25T06:53:03;2.22;;;1.30;;
74383;SDS011;62824;52.994;-3.936;2024-01-25T06:55:30;2.63;;;1.00;;
74383;SDS011;62824;52.994;-3.936;2024-01-25T06:57:56;3.17;;;1.00;;
74383;SDS011;62824;52.994;-3.936;2024-01-25T07:00:22;1.77;;;0.80;;
74383;SDS011;62824;52.994;-3.936;2024-01-25T07:02:48;8.00;;;1.50;;
74383;SDS011;62824;52.994;-3.936;2024-01-25T07:05:14;4.45;;;0.93;;
74383;SDS011;62824;52.994;-3.936;2024-01-25T07:07:40;3.97;;;0.88;;
74383;SDS011;62824;52.994;-3.936;2024-01-25T07:10:06;2.97;;;1.00;;
74383;SDS011;62824;52.994;-3.936;2024-01-25T07:12:38;4.50;;;0.98;;
74383;SDS011;62824;52.994;-3.936;2024-01-25T07:15:06;5.22;;;0.80;;
74383;SDS011;62824;52.994;-3.936;2024-01-25T07:17:43;5.90;;;1.40;;
74383;SDS011;62824;52.994;-3.936;2024-01-25T07:20:16;4.25;;;1.20;;
74383;SDS011;62824;52.994;-3.936;2024-01-25T07:22:42;7.93;;;1.30;;
74383;SDS011;62824;52.994;-3.936;2024-01-25T07:25:08;4.03;;;0.88;;
74383;SDS011;62824;52.994;-3.936;2024-01-25T07:27:34;7.20;;;1.50;;
74383;SDS011;62824;52.994;-3.936;2024-01-25T07:30:00;5.63;;;1.30;;
74383;SDS011;62824;52.994;-3.936;2024-01-25T07:32:34;5.22;;;1.00;;
74383;SDS011;62824;52.994;-3.936;2024-01-25T07:35:03;2.28;;;1.10;;
74383;SDS011;62824;52.994;-3.936;2024-01-25T07:37:58;5.88;;;1.10;;
74383;SDS011;62824;52.994;-3.936;2024-01-25T07:40:41;7.90;;;1.77;;
74383;SDS011;62824;52.994;-3.936;2024-01-25T07:43:13;6.22;;;1.70;;
74383;SDS011;62824;52.994;-3.936;2024-01-25T07:45:39;13.00;;;1.45;;
74383;SDS011;62824;52.994;-3.936;2024-01-25T07:48:19;5.50;;;1.33;;
74383;SDS011;62824;52.994;-3.936;2024-01-25T07:50:45;6.00;;;1.80;;
74383;SDS011;62824;52.994;-3.936;2024-01-25T07:53:17;6.40;;;1.20;;
74383;SDS011;62824;52.994;-3.936;2024-01-25T07:55:46;6.25;;;1.80;;
74383;SDS011;62824;52.994;-3.936;2024-01-25T07:58:15;4.80;;;1.55;;
74383;SDS011;62824;52.994;-3.936;2024-01-25T08:00:45;11.85;;;2.35;;
74383;SDS011;62824;52.994;-3.936;2024-01-25T08:03:11;10.43;;;1.42;;
74383;SDS011;62824;52.994;-3.936;2024-01-25T08:05:37;5.10;;;1.80;;
74383;SDS011;62824;52.994;-3.936;2024-01-25T08:08:03;8.02;;;2.00;;
74383;SDS011;62824;52.994;-3.936;2024-01-25T08:10:29;7.50;;;1.85;;
74383;SDS011;62824;52.994;-3.936;2024-01-25T08:12:58;7.72;;;1.95;;
74383;SDS011;62824;52.994;-3.936;2024-01-25T08:15:37;9.23;;;1.88;;
74383;SDS011;62824;52.994;-3.936;2024-01-25T08:18:04;7.53;;;2.00;;
74383;SDS011;62824;52.994;-3.936;2024-01-25T08:20:30;5.20;;;1.80;;
74383;SDS011;62824;52.994;-3.936;2024-01-25T08:22:56;9.95;;;1.90;;
74383;SDS011;62824;52.994;-3.936;2024-01-25T08:25:31;14.07;;;1.98;;
74383;SDS011;62824;52.994;-3.936;2024-01-25T08:28:07;9.88;;;1.98;;
74383;SDS011;62824;52.994;-3.936;2024-01-25T08:30:39;8.20;;;1.70;;
74383;SDS011;62824;52.994;-3.936;2024-01-25T08:33:06;8.68;;;2.30;;
74383;SDS011;62824;52.994;-3.936;2024-01-25T08:35:36;8.55;;;2.05;;
74383;SDS011;62824;52.994;-3.936;2024-01-25T08:38:01;11.68;;;2.70;;
74383;SDS011;62824;52.994;-3.936;2024-01-25T08:40:28;10.35;;;2.10;;
74383;SDS011;62824;52.994;-3.936;2024-01-25T08:45:46;11.43;;;2.50;;
74383;SDS011;62824;52.994;-3.936;2024-01-25T08:48:12;9.32;;;2.60;;
74383;SDS011;62824;52.994;-3.936;2024-01-25T08:50:51;8.63;;;2.40;;
74383;SDS011;62824;52.994;-3.936;2024-01-25T08:53:24;10.03;;;2.50;;
74383;SDS011;62824;52.994;-3.936;2024-01-25T08:56:07;6.45;;;2.30;;
74383;SDS011;62824;52.994;-3.936;2024-01-25T08:59:09;11.38;;;2.58;;
74383;SDS011;62824;52.994;-3.936;2024-01-25T09:01:35;8.48;;;2.70;;
74383;SDS011;62824;52.994;-3.936;2024-01-25T09:04:08;7.22;;;2.40;;
74383;SDS011;62824;52.994;-3.936;2024-01-25T09:06:54;10.65;;;3.00;;
74383;SDS011;62824;52.994;-3.936;2024-01-25T09:09:30;15.80;;;3.20;;
74383;SDS011;62824;52.994;-3.936;2024-01-25T09:14:49;8.40;;;2.25;;
74383;SDS011;62824;52.994;-3.936;2024-01-25T09:17:21;17.33;;;3.25;;
74383;SDS011;62824;52.994;-3.936;2024-01-25T09:19:54;7.80;;;2.80;;
74383;SDS011;62824;52.994;-3.936;2024-01-25T09:25:15;6.97;;;2.25;;
74383;SDS011;62824;52.994;-3.936;2024-01-25T09:27:52;15.38;;;2.70;;
74383;SDS011;62824;52.994;-3.936;2024-01-25T09:30:21;9.52;;;3.10;;
74383;SDS011;62824;52.994;-3.936;2024-01-25T09:32:56;7.72;;;2.25;;
74383;SDS011;62824;52.994;-3.936;2024-01-25T09:35:29;8.40;;;2.42;;
74383;SDS011;62824;52.994;-3.936;2024-01-25T09:38:26;8.60;;;2.30;;
74383;SDS011;62824;52.994;-3.936;2024-01-25T09:41:09;15.10;;;2.67;;
74383;SDS011;62824;52.994;-3.936;2024-01-25T09:43:42;8.45;;;2.25;;
74383;SDS011;62824;52.994;-3.936;2024-01-25T09:46:12;8.48;;;1.92;;
74383;SDS011;62824;52.994;-3.936;2024-01-25T09:48:39;12.23;;;2.03;;
74383;SDS011;62824;52.994;-3.936;2024-01-25T09:51:06;6.47;;;1.58;;
74383;SDS011;62824;52.994;-3.936;2024-01-25T09:53:32;8.90;;;2.05;;
74383;SDS011;62824;52.994;-3.936;2024-01-25T09:56:06;5.20;;;1.40;;
74383;SDS011;62824;52.994;-3.936;2024-01-25T09:58:42;8.13;;;1.88;;
74383;SDS011;62824;52.994;-3.936;2024-01-25T10:01:12;4.82;;;1.40;;
74383;SDS011;62824;52.994;-3.936;2024-01-25T10:03:44;5.05;;;1.80;;
74383;SDS011;62824;52.994;-3.936;2024-01-25T10:06:11;2.92;;;1.40;;
74383;SDS011;62824;52.994;-3.936;2024-01-25T10:08:38;8.45;;;1.73;;
74383;SDS011;62824;52.994;-3.936;2024-01-25T10:11:04;7.60;;;2.15;;
74383;SDS011;62824;52.994;-3.936;2024-01-25T10:13:31;5.18;;;1.73;;
74383;SDS011;62824;52.994;-3.936;2024-01-25T10:15:57;10.30;;;2.05;;
74383;SDS011;62824;52.994;-3.936;2024-01-25T10:18:25;6.43;;;1.90;;
74383;SDS011;62824;52.994;-3.936;2024-01-25T10:20:53;8.73;;;2.05;;
74383;SDS011;62824;52.994;-3.936;2024-01-25T10:23:22;11.73;;;2.50;;
74383;SDS011;62824;52.994;-3.936;2024-01-25T10:25:50;4.95;;;1.65;;
74383;SDS011;62824;52.994;-3.936;2024-01-25T10:28:17;7.35;;;1.40;;
74383;SDS011;62824;52.994;-3.936;2024-01-25T10:30:46;7.75;;;1.65;;
74383;SDS011;62824;52.994;-3.936;2024-01-25T10:33:19;7.22;;;1.70;;
74383;SDS011;62824;52.994;-3.936;2024-01-25T10:35:45;8.38;;;2.00;;
74383;SDS011;62824;52.994;-3.936;2024-01-25T10:38:16;8.18;;;2.80;;
74383;SDS011;62824;52.994;-3.936;2024-01-25T10:40:43;10.45;;;2.03;;
74383;SDS011;62824;52.994;-3.936;2024-01-25T10:43:11;10.20;;;2.53;;
74383;SDS011;62824;52.994;-3.936;2024-01-25T10:45:37;8.52;;;2.53;;
74383;SDS011;62824;52.994;-3.936;2024-01-25T10:48:03;8.75;;;2.15;;
74383;SDS011;62824;52.994;-3.936;2024-01-25T10:50:29;7.72;;;2.30;;
74383;SDS011;62824;52.994;-3.936;2024-01-25T10:52:55;4.97;;;2.20;;
74383;SDS011;62824;52.994;-3.936;2024-01-25T10:55:22;11.57;;;2.30;;
74383;SDS011;62824;52.994;-3.936;2024-01-25T10:57:50;8.40;;;2.30;;
74383;SDS011;62824;52.994;-3.936;2024-01-25T11:00:17;5.57;;;1.77;;
74383;SDS011;62824;52.994;-3.936;2024-01-25T11:02:46;6.07;;;2.25;;
74383;SDS011;62824;52.994;-3.936;2024-01-25T11:05:15;7.43;;;2.08;;
74383;SDS011;62824;52.994;-3.936;2024-01-25T11:07:46;9.40;;;2.50;;
74383;SDS011;62824;52.994;-3.936;2024-01-25T11:10:14;9.13;;;2.20;;
74383;SDS011;62824;52.994;-3.936;2024-01-25T11:15:22;6.65;;;1.88;;
74383;SDS011;62824;52.994;-3.936;2024-01-25T11:18:08;5.10;;;1.20;;
74383;SDS011;62824;52.994;-3.936;2024-01-25T11:20:34;7.68;;;1.52;;
74383;SDS011;62824;52.994;-3.936;2024-01-25T11:23:02;4.50;;;1.40;;
74383;SDS011;62824;52.994;-3.936;2024-01-25T11:25:33;4.50;;;1.75;;
74383;SDS011;62824;52.994;-3.936;2024-01-25T11:28:01;5.45;;;2.25;;
74383;SDS011;62824;52.994;-3.936;2024-01-25T11:30:29;5.75;;;1.50;;
74383;SDS011;62824;52.994;-3.936;2024-01-25T11:32:57;3.67;;;1.48;;
74383;SDS011;62824;52.994;-3.936;2024-01-25T11:35:23;5.63;;;1.98;;
74383;SDS011;62824;52.994;-3.936;2024-01-25T11:37:49;3.60;;;1.77;;
74383;SDS011;62824;52.994;-3.936;2024-01-25T11:40:18;6.63;;;2.40;;
74383;SDS011;62824;52.994;-3.936;2024-01-25T11:42:49;6.88;;;2.30;;
74383;SDS011;62824;52.994;-3.936;2024-01-25T11:45:15;10.18;;;2.30;;
74383;SDS011;62824;52.994;-3.936;2024-01-25T11:47:43;26.95;;;3.50;;
74383;SDS011;62824;52.994;-3.936;2024-01-25T11:50:10;16.98;;;3.00;;
74383;SDS011;62824;52.994;-3.936;2024-01-25T11:52:37;21.83;;;2.95;;
74383;SDS011;62824;52.994;-3.936;2024-01-25T11:55:03;22.48;;;3.25;;
74383;SDS011;62824;52.994;-3.936;2024-01-25T11:57:31;17.23;;;2.45;;
74383;SDS011;62824;52.994;-3.936;2024-01-25T12:00:02;18.88;;;3.65;;
74383;SDS011;62824;52.994;-3.936;2024-01-25T12:02:32;33.58;;;4.32;;
74383;SDS011;62824;52.994;-3.936;2024-01-25T12:04:59;17.23;;;2.40;;
74383;SDS011;62824;52.994;-3.936;2024-01-25T12:07:26;13.73;;;2.28;;
74383;SDS011;62824;52.994;-3.936;2024-01-25T12:09:59;23.63;;;3.53;;
74383;SDS011;62824;52.994;-3.936;2024-01-25T12:12:30;13.38;;;2.42;;
74383;SDS011;62824;52.994;-3.936;2024-01-25T12:15:12;35.10;;;3.90;;
74383;SDS011;62824;52.994;-3.936;2024-01-25T12:17:44;27.92;;;3.90;;
74383;SDS011;62824;52.994;-3.936;2024-01-25T12:20:40;15.73;;;2.45;;
74383;SDS011;62824;52.994;-3.936;2024-01-25T12:23:12;23.38;;;3.35;;
74383;SDS011;62824;52.994;-3.936;2024-01-25T12:26:13;7.38;;;2.40;;
74383;SDS011;62824;52.994;-3.936;2024-01-25T12:29:40;4.25;;;1.48;;
74383;SDS011;62824;52.994;-3.936;2024-01-25T12:33:11;4.18;;;1.33;;
74383;SDS011;62824;52.994;-3.936;2024-01-25T12:35:54;5.05;;;1.70;;
74383;SDS011;62824;52.994;-3.936;2024-01-25T12:38:21;3.25;;;0.93;;
74383;SDS011;62824;52.994;-3.936;2024-01-25T12:40:56;3.97;;;1.75;;
74383;SDS011;62824;52.994;-3.936;2024-01-25T12:43:25;3.33;;;0.98;;
74383;SDS011;62824;52.994;-3.936;2024-01-25T12:46:03;1.65;;;0.80;;
74383;SDS011;62824;52.994;-3.936;2024-01-25T12:48:29;4.72;;;1.00;;
74383;SDS011;62824;52.994;-3.936;2024-01-25T12:50:55;1.90;;;0.90;;
74383;SDS011;62824;52.994;-3.936;2024-01-25T12:53:24;1.88;;;0.70;;
74383;SDS011;62824;52.994;-3.936;2024-01-25T12:55:50;2.33;;;0.95;;
74383;SDS011;62824;52.994;-3.936;2024-01-25T12:58:19;0.98;;;0.68;;
74383;SDS011;62824;52.994;-3.936;2024-01-25T13:00:44;2.05;;;0.70;;
74383;SDS011;62824;52.994;-3.936;2024-01-25T13:03:11;3.25;;;0.80;;
74383;SDS011;62824;52.994;-3.936;2024-01-25T13:05:38;3.28;;;0.98;;
74383;SDS011;62824;52.994;-3.936;2024-01-25T13:08:04;6.75;;;1.67;;
74383;SDS011;62824;52.994;-3.936;2024-01-25T13:10:32;9.13;;;1.90;;
74383;SDS011;62824;52.994;-3.936;2024-01-25T13:12:58;8.68;;;2.42;;
74383;SDS011;62824;52.994;-3.936;2024-01-25T13:15:24;19.25;;;2.30;;
74383;SDS011;62824;52.994;-3.936;2024-01-25T13:17:52;32.33;;;4.00;;
74383;SDS011;62824;52.994;-3.936;2024-01-25T13:20:18;6.03;;;1.23;;
74383;SDS011;62824;52.994;-3.936;2024-01-25T13:22:45;14.50;;;1.88;;
74383;SDS011;62824;52.994;-3.936;2024-01-25T13:25:11;16.00;;;2.50;;
74383;SDS011;62824;52.994;-3.936;2024-01-25T13:27:38;15.10;;;2.15;;
74383;SDS011;62824;52.994;-3.936;2024-01-25T13:30:16;4.57;;;1.48;;
74383;SDS011;62824;52.994;-3.936;2024-01-25T13:32:45;6.07;;;1.65;;
74383;SDS011;62824;52.994;-3.936;2024-01-25T13:35:11;8.93;;;1.83;;
74383;SDS011;62824;52.994;-3.936;2024-01-25T13:37:42;8.52;;;1.30;;
74383;SDS011;62824;52.994;-3.936;2024-01-25T13:40:11;3.42;;;1.20;;
74383;SDS011;62824;52.994;-3.936;2024-01-25T13:42:40;2.33;;;0.70;;
74383;SDS011;62824;52.994;-3.936;2024-01-25T13:45:10;1.50;;;0.75;;
74383;SDS011;62824;52.994;-3.936;2024-01-25T13:47:38;1.88;;;1.10;;
74383;SDS011;62824;52.994;-3.936;2024-01-25T13:50:10;1.23;;;0.70;;
74383;SDS011;62824;52.994;-3.936;2024-01-25T13:52:47;1.45;;;0.70;;
74383;SDS011;62824;52.994;-3.936;2024-01-25T13:55:13;1.73;;;0.80;;
74383;SDS011;62824;52.994;-3.936;2024-01-25T13:57:42;0.60;;;0.50;;
74383;SDS011;62824;52.994;-3.936;2024-01-25T14:00:15;1.00;;;0.60;;
74383;SDS011;62824;52.994;-3.936;2024-01-25T14:02:41;1.00;;;0.68;;
74383;SDS011;62824;52.994;-3.936;2024-01-25T14:05:24;0.70;;;0.55;;
74383;SDS011;62824;52.994;-3.936;2024-01-25T14:07:53;1.45;;;0.60;;
74383;SDS011;62824;52.994;-3.936;2024-01-25T14:10:22;0.57;;;0.40;;
74383;SDS011;62824;52.994;-3.936;2024-01-25T14:12:50;0.25;;;0.25;;
74383;SDS011;62824;52.994;-3.936;2024-01-25T14:15:25;1.80;;;0.80;;
74383;SDS011;62824;52.994;-3.936;2024-01-25T14:17:51;0.40;;;0.30;;
74383;SDS011;62824;52.994;-3.936;2024-01-25T14:20:18;0.63;;;0.52;;
74383;SDS011;62824;52.994;-3.936;2024-01-25T14:22:49;0.77;;;0.55;;
74383;SDS011;62824;52.994;-3.936;2024-01-25T14:25:15;0.77;;;0.60;;
74383;SDS011;62824;52.994;-3.936;2024-01-25T14:27:41;1.05;;;0.70;;
74383;SDS011;62824;52.994;-3.936;2024-01-25T14:30:08;1.80;;;0.70;;
74383;SDS011;62824;52.994;-3.936;2024-01-25T14:32:35;0.65;;;0.65;;
74383;SDS011;62824;52.994;-3.936;2024-01-25T14:35:01;1.40;;;1.20;;
74383;SDS011;62824;52.994;-3.936;2024-01-25T14:37:27;1.23;;;0.85;;
74383;SDS011;62824;52.994;-3.936;2024-01-25T14:39:56;1.88;;;1.00;;
74383;SDS011;62824;52.994;-3.936;2024-01-25T14:42:22;3.28;;;1.00;;
74383;SDS011;62824;52.994;-3.936;2024-01-25T14:44:48;3.08;;;1.10;;
74383;SDS011;62824;52.994;-3.936;2024-01-25T14:47:14;1.85;;;1.02;;
74383;SDS011;62824;52.994;-3.936;2024-01-25T14:49:45;1.95;;;1.00;;
74383;SDS011;62824;52.994;-3.936;2024-01-25T14:52:11;1.80;;;0.88;;
74383;SDS011;62824;52.994;-3.936;2024-01-25T14:54:37;1.45;;;1.00;;
74383;SDS011;62824;52.994;-3.936;2024-01-25T14:57:04;2.97;;;1.30;;